1882 NOT_NAMED (1882042S14069)


IBTrACS version v04r00. Visit IBTrACS website for data access.
Please direct all questions to the IBTrACS Q and A forum

Storm track - Intensity - Wind Radii - Intensity Data - Source Data - All data

Summary Information

Storm ID 1882042S14069
Start Feb 11 06Z
End Feb 17 06Z
ATCF IDs
Track status Best track data.
Spur track This storm is a spur track associated with the main storm: 1882042S14070

Storm track plot

Map of storm track

Intensity plots

No Intensity information for this storm


Radial wind information

No radial wind information for this storm


Position and Intensity Table

BASIN ISO_TIME_________ NATURE LAT LON
degrees north degrees east
SI 1882-02-11 06:00:00 NR -13.80 69.40
SI 09:00:00 NR -13.85 69.32
SI 12:00:00 NR -13.90 69.22
SI 15:00:00 NR -13.96 69.11
SI 18:00:00 NR -14.04 68.97
SI 21:00:00 NR -14.14 68.78
SI 1882-02-12 00:00:00 NR -14.26 68.55
SI 03:00:00 NR -14.41 68.26
SI 06:00:00 NR -14.60 67.90
SI 09:00:00 NR -14.82 67.46
SI 12:00:00 NR -15.08 66.96
SI 15:00:00 NR -15.37 66.40
SI 18:00:00 NR -15.68 65.80
SI 21:00:00 NR -16.01 65.16
SI 1882-02-13 00:00:00 NR -16.37 64.51
SI 03:00:00 NR -16.73 63.85
SI 06:00:00 NR -17.10 63.20
SI 09:00:00 NR -17.45 62.59
SI 12:00:00 NR -17.82 61.97
SI 15:00:00 NR -18.20 61.35
SI 18:00:00 NR -18.58 60.74
SI 21:00:00 NR -18.98 60.13
SI 1882-02-14 00:00:00 NR -19.38 59.54
SI 03:00:00 NR -19.79 58.96
SI 06:00:00 NR -20.20 58.40
SI 09:00:00 NR -20.58 57.86
SI 12:00:00 NR -20.96 57.33
SI 15:00:00 NR -21.35 56.82
SI 18:00:00 NR -21.75 56.33
SI 21:00:00 NR -22.18 55.85
SI 1882-02-15 00:00:00 NR -22.62 55.39
SI 03:00:00 NR -23.09 54.94
SI 06:00:00 NR -23.60 54.50
SI 09:00:00 NR -24.18 54.01
SI 12:00:00 NR -24.80 53.53
SI 15:00:00 NR -25.45 53.07
SI 18:00:00 NR -26.11 52.62
SI 21:00:00 NR -26.77 52.20
SI 1882-02-16 00:00:00 NR -27.41 51.82
SI 03:00:00 NR -28.02 51.49
SI 06:00:00 NR -28.60 51.20
SI 09:00:00 NR -29.13 50.97
SI 12:00:00 NR -29.61 50.80
SI 15:00:00 NR -30.05 50.68
SI 18:00:00 NR -30.46 50.59
SI 21:00:00 NR -30.84 50.54
SI 1882-02-17 00:00:00 NR -31.20 50.51
SI 03:00:00 NR -31.56 50.50
SI 06:00:00 NR -31.90 50.50

Source Information

Agency Information
USA
TOKYO
CMA
HKO
NEWDELHI
REUNION WMO-Best-Tracks.txt:Line=1284:xxxx882188
BOM
NADI
WELLINGTON
DS824
TD9636
TD9635
NEUMANN
MLC

All available IBTrACS Data

SEASON BASIN SUBBASIN ISO_TIME_________ NATURE LAT LON WMO AGENCY DIST2LAND LANDFALL IFLAG USA SSHS REUNION LAT REUNION LON REUNION TYPE REUNION TNUM STORM SPEED STORM DIR
Year degrees north degrees east km km 1 degrees north degrees east 1 kts degrees
1882 SI MM 1882-02-11 06:00:00 NR -13.80 69.40 reunion 1429 1420 _____O________ -1 -13.80 69.40 99 9.90 2 237
1882 SI MM 09:00:00 NR -13.85 69.32 1420 1405 _____P________ -1 -13.85 69.32 99 2 240
1882 SI MM 12:00:00 NR -13.90 69.22 1405 1390 _____P________ -1 -13.90 69.22 99 2 240
1882 SI MM 15:00:00 NR -13.96 69.11 1390 1381 _____P________ -1 -13.96 69.11 99 3 241
1882 SI MM 18:00:00 NR -14.04 68.97 1381 1356 _____P________ -1 -14.04 68.97 99 4 241
1882 SI MM 21:00:00 NR -14.14 68.78 1356 1326 _____P________ -1 -14.14 68.78 99 5 241
1882 SI MM 1882-02-12 00:00:00 NR -14.26 68.55 1326 1293 _____P________ -1 -14.26 68.55 99 6 242
1882 SI MM 03:00:00 NR -14.41 68.26 1293 1244 _____P________ -1 -14.41 68.26 99 7 242
1882 SI MM 06:00:00 NR -14.60 67.90 reunion 1244 1196 _____O________ -1 -14.60 67.90 99 9.90 9 242
1882 SI MM 09:00:00 NR -14.82 67.46 1196 1133 _____P________ -1 -14.82 67.46 99 10 242
1882 SI MM 12:00:00 NR -15.08 66.96 1133 1060 _____P________ -1 -15.08 66.96 99 12 242
1882 SI MM 15:00:00 NR -15.37 66.40 1060 988 _____P________ -1 -15.37 66.40 99 13 242
1882 SI MM 18:00:00 NR -15.68 65.80 988 915 _____P________ -1 -15.68 65.80 99 14 241
1882 SI MM 21:00:00 NR -16.01 65.16 915 834 _____P________ -1 -16.01 65.16 99 14 241
1882 SI MM 1882-02-13 00:00:00 NR -16.37 64.51 828 756 _____P________ -1 -16.37 64.51 99 14 240
1882 SI MM 03:00:00 NR -16.73 63.85 756 669 _____P________ -1 -16.73 63.85 99 15 240
1882 SI MM 06:00:00 NR -17.10 63.20 reunion 669 597 _____O________ -1 -17.10 63.20 99 9.90 14 239
1882 SI MM 09:00:00 NR -17.45 62.59 592 520 _____P________ -1 -17.45 62.59 99 14 239
1882 SI MM 12:00:00 NR -17.82 61.97 520 442 _____P________ -1 -17.82 61.97 99 14 238
1882 SI MM 15:00:00 NR -18.20 61.35 442 365 _____P________ -1 -18.20 61.35 99 14 237
1882 SI MM 18:00:00 NR -18.58 60.74 356 289 _____P________ -1 -18.58 60.74 99 14 236
1882 SI MM 21:00:00 NR -18.98 60.13 279 213 _____P________ -1 -18.98 60.13 99 14 235
1882 SI MM 1882-02-14 00:00:00 NR -19.38 59.54 203 137 _____P________ -1 -19.38 59.54 99 14 234
1882 SI MM 03:00:00 NR -19.79 58.96 137 63 _____P________ -1 -19.79 58.96 99 14 233
1882 SI MM 06:00:00 NR -20.20 58.40 reunion 63 20 _____O________ -1 -20.20 58.40 99 9.90 13 233
1882 SI MM 09:00:00 NR -20.58 57.86 23 15 _____P________ -1 -20.58 57.86 99 13 233
1882 SI MM 12:00:00 NR -20.96 57.33 55 55 _____P________ -1 -20.96 57.33 99 12 231
1882 SI MM 15:00:00 NR -21.35 56.82 104 76 _____P________ -1 -21.35 56.82 99 12 230
1882 SI MM 18:00:00 NR -21.75 56.33 76 69 _____P________ -1 -21.75 56.33 99 12 228
1882 SI MM 21:00:00 NR -22.18 55.85 94 91 _____P________ -1 -22.18 55.85 99 12 225
1882 SI MM 1882-02-15 00:00:00 NR -22.62 55.39 135 135 _____P________ -1 -22.62 55.39 99 13 223
1882 SI MM 03:00:00 NR -23.09 54.94 203 203 _____P________ -1 -23.09 54.94 99 13 220
1882 SI MM 06:00:00 NR -23.60 54.50 reunion 269 269 _____O________ -1 -23.60 54.50 99 9.90 14 218
1882 SI MM 09:00:00 NR -24.18 54.01 350 350 _____P________ -1 -24.18 54.01 99 15 216
1882 SI MM 12:00:00 NR -24.80 53.53 432 432 _____P________ -1 -24.80 53.53 99 15 214
1882 SI MM 15:00:00 NR -25.45 53.07 520 520 _____P________ -1 -25.45 53.07 99 15 212
1882 SI MM 18:00:00 NR -26.11 52.62 561 544 _____P________ -1 -26.11 52.62 99 15 211
1882 SI MM 21:00:00 NR -26.77 52.20 547 538 _____P________ -1 -26.77 52.20 99 15 209
1882 SI MM 1882-02-16 00:00:00 NR -27.41 51.82 539 536 _____P________ -1 -27.41 51.82 99 14 207
1882 SI MM 03:00:00 NR -28.02 51.49 550 549 _____P________ -1 -28.02 51.49 99 13 205
1882 SI MM 06:00:00 NR -28.60 51.20 reunion 570 570 _____O________ -1 -28.60 51.20 99 9.90 12 202
1882 SI MM 09:00:00 NR -29.13 50.97 596 596 _____P________ -1 -29.13 50.97 99 11 199
1882 SI MM 12:00:00 NR -29.61 50.80 626 626 _____P________ -1 -29.61 50.80 99 10 196
1882 SI MM 15:00:00 NR -30.05 50.68 657 657 _____P________ -1 -30.05 50.68 99 9 192
1882 SI MM 18:00:00 NR -30.46 50.59 698 698 _____P________ -1 -30.46 50.59 99 8 189
1882 SI MM 21:00:00 NR -30.84 50.54 722 722 _____P________ -1 -30.84 50.54 99 8 186
1882 SI MM 1882-02-17 00:00:00 NR -31.20 50.51 761 761 _____P________ -1 -31.20 50.51 99 7 184
1882 SI MM 03:00:00 NR -31.56 50.50 800 800 _____P________ -1 -31.56 50.50 99 7 0
1882 SI MM 06:00:00 NR -31.90 50.50 reunion 830 _____O________ -1 -31.90 50.50 99 9.90 7 182